Search the Community

Showing results for tags 'runway'.



More search options

  • Search By Tags

    Type tags separated by commas.
  • Search By Author

Content Type


Forums

  • Real estate projects
    • Proposals
    • Going up
    • Completed
    • Mass Transit
    • Infrastructures
    • Cultural, entertainment and sport projects
    • Cancelled projects
  • General topics
    • City planning and architecture
    • Economy discussions
    • Technology, video games and gadgets
    • Urban tech
    • General discussions
    • Entertainment, food and culture
    • Current events
    • Off Topic
  • MTLYUL Aviation
    • General discussion
    • Spotting at YUL
  • Here and abroad
    • City of Québec
    • Around the province of Québec.
    • Toronto and the rest of Canada
    • USA
    • Europe
    • Projects elsewhere in the world
  • Photography and videos
    • Urban photography
    • Other pictures
    • Old pictures

Calendars

There are no results to display.

There are no results to display.

Blogs

There are no results to display.

There are no results to display.


Find results in...

Find results that contain...


Date Created

  • Start

    End


Last Updated

  • Start

    End


Filter by number of...

Joined

  • Start

    End


Group


About Me


Biography


Location


Interests


Occupation


Type of dwelling

Found 3 results

  1. A Westjet Boeing 737-600, registration C-GWCT performing flight WS-588 from Toronto,ON to Montreal,QC (Canada), landed on Montreal's runway 24L at 15:02L (19:02Z) but overran the end of the runway and came to a stop with all gear on soft ground off the right edge of the paved surface of the runway end safety area. There were no injuries, the aircraft received minor if any damage. The passengers disembarked onto the grass via mobile stairs and were taken to the terminal. The airline confirmed the aircraft exited the runway onto grass upon arrival. All passengers and crew were safe however. Canada's TSB have opened an investigation. Metars: CYUL 052052Z 32003KT 270V360 15SM FEW010 OVC065 20/18 A2991 RMK SF1SC7 SLP128 DENSITY ALT 700FT CYUL 052000Z 34004KT 280V010 12SM FEW020 BKN050 OVC075 20/18 A2992 RMK CF2SC3AC3 SLP131 DENSITY ALT 600FT CYUL 051913Z 31005KT 270V330 3SM -SHRA BR FEW011 SCT025TCU OVC050 19/18 A2993 RMK SF1TCU3SC4 VIS SE 11/2 SLP134 DENSITY ALT 500FT CYUL 051906Z 31008G18KT 2SM SHRA BR FEW011 OVC025TCU 19/18 A2993 RMK SF2TCU6 PRESRR SLP135 DENSITY ALT 500FT CYUL 051900Z 31012G23KT 1 1/2SM +SHRA SCT011 OVC022TCU 19/18 A2993 RMK SF3TCU5 PRESRR SLP134 DENSITY ALT 600FT CYUL 051851Z 33018KT 250V340 15SM SHRA FEW012 BKN025TCU OVC075 20/18 A2992 RMK SF2TCU5AC1 VIS SW-N 21/2 PRESRR SLP131 DENSITY ALT 700FT CYUL 051812Z 22008KT 15SM -SHRA BKN045TCU BKN075 OVC240 23/16 A2991 RMK TCU5AC2CI1 SLP129 DENSITY ALT 1100FT CYUL 051800Z 19010KT 15SM VCSH BKN045TCU BKN080 OVC240 24/16 A2991 RMK TCU5AC1CI2 SHRA W-N SLP130 DENSITY ALT 1100FT CYUL 051700Z 22013KT 15SM SCT035TCU BKN110 OVC240 24/16 A2994 RMK TCU4AC1CI3 SLP139 DENSITY ALT 1100FT CYUL 051600Z 20011G16KT 15SM SCT035 BKN110 BKN210 23/16 A2996 RMK CU4AC1CI2 SLP145 DENSITY ALT 1000FT CYUL 051500Z 20010KT 15SM SCT030 BKN120 BKN240 22/15 A2998 RMK CU4AC2CI1 SLP151 DENSITY ALT 800FT CYUL 051400Z 19007KT 15SM FEW035 SCT050 BKN075 20/15 A2999 RMK SC1SC3ACC2 SLP155 DENSITY ALT http://avherald.com/h?article=48760004&opt=0 Sent from my iPad using Tapatalk
  2. Does anybody know what is the work they've been going on her threashold of runway 06R???
  3. http://www.reuters.com/article/newsOne/idUSN2639114520080827 TORONTO (Reuters) - An Air France-KLM Boeing 747 aircraft on a flight from Paris skidded off the runway after landing at Montreal's Trudeau airport on Tuesday but there were no injuries or serious damage, police said. Passengers were taken off the plane by emergency crews after it overshot the runway and became stuck in the grass. Operations at the airport were not seriously affected and planes continued to land and take off. (Reporting Ted Kerr; Editing by Jackie Frank)